sensor_id;sensor_type;location;lat;lon;timestamp;temperature;humidity
25512;DHT22;13414;44.534;18.700;2022-10-16T00:01:36;9.10;99.90
25512;DHT22;13414;44.534;18.700;2022-10-16T00:04:03;9.00;99.90
25512;DHT22;13414;44.534;18.700;2022-10-16T00:06:31;9.00;99.90
25512;DHT22;13414;44.534;18.700;2022-10-16T00:08:58;9.00;99.90
25512;DHT22;13414;44.534;18.700;2022-10-16T00:11:28;9.10;99.90
25512;DHT22;13414;44.534;18.700;2022-10-16T00:13:58;9.00;99.90
25512;DHT22;13414;44.534;18.700;2022-10-16T00:16:25;9.00;99.90
25512;DHT22;13414;44.534;18.700;2022-10-16T00:18:54;9.00;99.90
25512;DHT22;13414;44.534;18.700;2022-10-16T00:21:23;8.90;99.90
25512;DHT22;13414;44.534;18.700;2022-10-16T00:23:52;8.90;99.90
25512;DHT22;13414;44.534;18.700;2022-10-16T00:26:19;8.90;99.90
25512;DHT22;13414;44.534;18.700;2022-10-16T00:28:48;8.80;99.90
25512;DHT22;13414;44.534;18.700;2022-10-16T00:31:16;8.80;99.90
25512;DHT22;13414;44.534;18.700;2022-10-16T00:33:44;8.80;99.90
25512;DHT22;13414;44.534;18.700;2022-10-16T00:36:14;8.80;99.90
25512;DHT22;13414;44.534;18.700;2022-10-16T00:38:42;8.80;99.90
25512;DHT22;13414;44.534;18.700;2022-10-16T00:41:11;8.80;99.90
25512;DHT22;13414;44.534;18.700;2022-10-16T00:43:40;8.80;99.90
25512;DHT22;13414;44.534;18.700;2022-10-16T00:46:15;8.70;99.90
25512;DHT22;13414;44.534;18.700;2022-10-16T00:48:47;8.80;99.90
25512;DHT22;13414;44.534;18.700;2022-10-16T00:51:18;8.80;99.90
25512;DHT22;13414;44.534;18.700;2022-10-16T00:53:46;8.80;99.90
25512;DHT22;13414;44.534;18.700;2022-10-16T00:56:13;8.70;99.90
25512;DHT22;13414;44.534;18.700;2022-10-16T00:58:41;8.70;99.90
25512;DHT22;13414;44.534;18.700;2022-10-16T01:01:08;8.70;99.90
25512;DHT22;13414;44.534;18.700;2022-10-16T01:03:36;8.70;99.90
25512;DHT22;13414;44.534;18.700;2022-10-16T01:06:23;8.80;99.90
25512;DHT22;13414;44.534;18.700;2022-10-16T01:09:02;8.70;99.90
25512;DHT22;13414;44.534;18.700;2022-10-16T01:11:34;8.70;99.90
25512;DHT22;13414;44.534;18.700;2022-10-16T01:14:11;8.60;99.90
25512;DHT22;13414;44.534;18.700;2022-10-16T01:16:44;8.60;99.90
25512;DHT22;13414;44.534;18.700;2022-10-16T01:19:20;8.60;99.90
25512;DHT22;13414;44.534;18.700;2022-10-16T01:21:51;8.70;99.90
25512;DHT22;13414;44.534;18.700;2022-10-16T01:24:27;8.70;99.90
25512;DHT22;13414;44.534;18.700;2022-10-16T01:27:07;8.70;99.90
25512;DHT22;13414;44.534;18.700;2022-10-16T01:29:39;8.70;99.90
25512;DHT22;13414;44.534;18.700;2022-10-16T01:32:13;8.70;99.90
25512;DHT22;13414;44.534;18.700;2022-10-16T01:34:48;8.70;99.90
25512;DHT22;13414;44.534;18.700;2022-10-16T01:37:23;8.60;99.90
25512;DHT22;13414;44.534;18.700;2022-10-16T01:39:55;8.60;99.90
25512;DHT22;13414;44.534;18.700;2022-10-16T01:42:31;8.60;99.90
25512;DHT22;13414;44.534;18.700;2022-10-16T01:45:01;8.60;99.90
25512;DHT22;13414;44.534;18.700;2022-10-16T01:47:30;8.50;99.90
25512;DHT22;13414;44.534;18.700;2022-10-16T01:49:59;8.50;99.90
25512;DHT22;13414;44.534;18.700;2022-10-16T01:52:32;8.50;99.90
25512;DHT22;13414;44.534;18.700;2022-10-16T01:55:02;8.50;99.90
25512;DHT22;13414;44.534;18.700;2022-10-16T01:57:34;8.50;99.90
25512;DHT22;13414;44.534;18.700;2022-10-16T02:00:07;8.40;99.90
25512;DHT22;13414;44.534;18.700;2022-10-16T02:02:39;8.40;99.90
25512;DHT22;13414;44.534;18.700;2022-10-16T02:05:12;8.40;99.90
25512;DHT22;13414;44.534;18.700;2022-10-16T02:07:41;8.40;99.90
25512;DHT22;13414;44.534;18.700;2022-10-16T02:10:10;8.40;99.90
25512;DHT22;13414;44.534;18.700;2022-10-16T02:12:43;8.40;99.90
25512;DHT22;13414;44.534;18.700;2022-10-16T02:15:12;8.40;99.90
25512;DHT22;13414;44.534;18.700;2022-10-16T02:17:39;8.40;99.90
25512;DHT22;13414;44.534;18.700;2022-10-16T02:20:07;8.30;99.90
25512;DHT22;13414;44.534;18.700;2022-10-16T02:22:38;8.30;99.90
25512;DHT22;13414;44.534;18.700;2022-10-16T02:25:09;8.30;99.90
25512;DHT22;13414;44.534;18.700;2022-10-16T02:27:46;8.20;99.90
25512;DHT22;13414;44.534;18.700;2022-10-16T02:30:19;8.20;99.90
25512;DHT22;13414;44.534;18.700;2022-10-16T02:32:48;8.20;99.90
25512;DHT22;13414;44.534;18.700;2022-10-16T02:35:18;8.20;99.90
25512;DHT22;13414;44.534;18.700;2022-10-16T02:37:46;8.10;99.90
25512;DHT22;13414;44.534;18.700;2022-10-16T02:40:14;8.10;99.90
25512;DHT22;13414;44.534;18.700;2022-10-16T02:42:43;8.10;99.90
25512;DHT22;13414;44.534;18.700;2022-10-16T02:45:11;8.10;99.90
25512;DHT22;13414;44.534;18.700;2022-10-16T02:47:38;8.20;99.90
25512;DHT22;13414;44.534;18.700;2022-10-16T02:50:06;8.20;99.90
25512;DHT22;13414;44.534;18.700;2022-10-16T02:52:33;8.20;99.90
25512;DHT22;13414;44.534;18.700;2022-10-16T02:55:01;8.10;99.90
25512;DHT22;13414;44.534;18.700;2022-10-16T02:57:28;8.00;99.90
25512;DHT22;13414;44.534;18.700;2022-10-16T02:59:57;8.00;99.90
25512;DHT22;13414;44.534;18.700;2022-10-16T03:02:25;8.10;99.90
25512;DHT22;13414;44.534;18.700;2022-10-16T03:04:52;8.00;99.90
25512;DHT22;13414;44.534;18.700;2022-10-16T03:07:20;8.10;99.90
25512;DHT22;13414;44.534;18.700;2022-10-16T03:09:47;8.10;99.90
25512;DHT22;13414;44.534;18.700;2022-10-16T03:12:14;8.10;99.90
25512;DHT22;13414;44.534;18.700;2022-10-16T03:14:41;8.00;99.90
25512;DHT22;13414;44.534;18.700;2022-10-16T03:17:10;8.00;99.90
25512;DHT22;13414;44.534;18.700;2022-10-16T03:19:38;8.00;99.90
25512;DHT22;13414;44.534;18.700;2022-10-16T03:22:06;7.90;99.90
25512;DHT22;13414;44.534;18.700;2022-10-16T03:24:33;7.90;99.90
25512;DHT22;13414;44.534;18.700;2022-10-16T03:27:00;7.90;99.90
25512;DHT22;13414;44.534;18.700;2022-10-16T03:29:28;7.80;99.90
25512;DHT22;13414;44.534;18.700;2022-10-16T03:31:55;7.80;99.90
25512;DHT22;13414;44.534;18.700;2022-10-16T03:34:24;7.80;99.90
25512;DHT22;13414;44.534;18.700;2022-10-16T03:36:51;7.80;99.90
25512;DHT22;13414;44.534;18.700;2022-10-16T03:39:19;7.80;99.90
25512;DHT22;13414;44.534;18.700;2022-10-16T03:41:46;7.70;99.90
25512;DHT22;13414;44.534;18.700;2022-10-16T03:44:14;7.70;99.90
25512;DHT22;13414;44.534;18.700;2022-10-16T03:46:41;7.70;99.90
25512;DHT22;13414;44.534;18.700;2022-10-16T03:49:08;7.70;99.90
25512;DHT22;13414;44.534;18.700;2022-10-16T03:51:37;7.70;99.90
25512;DHT22;13414;44.534;18.700;2022-10-16T03:54:04;7.80;99.90
25512;DHT22;13414;44.534;18.700;2022-10-16T03:56:32;7.80;99.90
25512;DHT22;13414;44.534;18.700;2022-10-16T03:58:59;7.80;99.90
25512;DHT22;13414;44.534;18.700;2022-10-16T04:01:26;7.70;99.90
25512;DHT22;13414;44.534;18.700;2022-10-16T04:03:53;7.70;99.90
25512;DHT22;13414;44.534;18.700;2022-10-16T04:06:21;7.70;99.90
25512;DHT22;13414;44.534;18.700;2022-10-16T04:08:50;7.60;99.90
25512;DHT22;13414;44.534;18.700;2022-10-16T04:11:17;7.60;99.90
25512;DHT22;13414;44.534;18.700;2022-10-16T04:13:44;7.60;99.90
25512;DHT22;13414;44.534;18.700;2022-10-16T04:16:11;7.60;99.90
25512;DHT22;13414;44.534;18.700;2022-10-16T04:18:39;7.70;99.90
25512;DHT22;13414;44.534;18.700;2022-10-16T04:21:06;7.70;99.90
25512;DHT22;13414;44.534;18.700;2022-10-16T04:23:34;7.70;99.90
25512;DHT22;13414;44.534;18.700;2022-10-16T04:26:03;7.70;99.90
25512;DHT22;13414;44.534;18.700;2022-10-16T04:28:30;7.70;99.90
25512;DHT22;13414;44.534;18.700;2022-10-16T04:30:58;7.60;99.90
25512;DHT22;13414;44.534;18.700;2022-10-16T04:33:25;7.60;99.90
25512;DHT22;13414;44.534;18.700;2022-10-16T04:35:57;7.60;99.90
25512;DHT22;13414;44.534;18.700;2022-10-16T04:38:24;7.60;99.90
25512;DHT22;13414;44.534;18.700;2022-10-16T04:40:52;7.60;99.90
25512;DHT22;13414;44.534;18.700;2022-10-16T04:43:21;7.60;99.90
25512;DHT22;13414;44.534;18.700;2022-10-16T04:45:48;7.50;99.90
25512;DHT22;13414;44.534;18.700;2022-10-16T04:48:17;7.50;99.90
25512;DHT22;13414;44.534;18.700;2022-10-16T04:50:44;7.50;99.90
25512;DHT22;13414;44.534;18.700;2022-10-16T04:53:11;7.40;99.90
25512;DHT22;13414;44.534;18.700;2022-10-16T04:55:38;7.30;99.90
25512;DHT22;13414;44.534;18.700;2022-10-16T04:58:07;7.30;99.90
25512;DHT22;13414;44.534;18.700;2022-10-16T05:00:36;7.40;99.90
25512;DHT22;13414;44.534;18.700;2022-10-16T05:03:04;7.50;99.90
25512;DHT22;13414;44.534;18.700;2022-10-16T05:05:34;7.50;99.90
25512;DHT22;13414;44.534;18.700;2022-10-16T05:08:01;7.50;99.90
25512;DHT22;13414;44.534;18.700;2022-10-16T05:10:29;7.50;99.90
25512;DHT22;13414;44.534;18.700;2022-10-16T05:12:57;7.40;99.90
25512;DHT22;13414;44.534;18.700;2022-10-16T05:15:24;7.40;99.90
25512;DHT22;13414;44.534;18.700;2022-10-16T05:17:54;7.40;99.90
25512;DHT22;13414;44.534;18.700;2022-10-16T05:20:22;7.50;99.90
25512;DHT22;13414;44.534;18.700;2022-10-16T05:22:50;7.50;99.90
25512;DHT22;13414;44.534;18.700;2022-10-16T05:25:17;7.50;99.90
25512;DHT22;13414;44.534;18.700;2022-10-16T05:27:47;7.50;99.90
25512;DHT22;13414;44.534;18.700;2022-10-16T05:30:14;7.50;99.90
25512;DHT22;13414;44.534;18.700;2022-10-16T05:32:45;7.50;99.90
25512;DHT22;13414;44.534;18.700;2022-10-16T05:35:14;7.50;99.90
25512;DHT22;13414;44.534;18.700;2022-10-16T05:37:42;7.60;99.90
25512;DHT22;13414;44.534;18.700;2022-10-16T05:40:10;7.50;99.90
25512;DHT22;13414;44.534;18.700;2022-10-16T05:42:37;7.60;99.90
25512;DHT22;13414;44.534;18.700;2022-10-16T05:45:06;7.60;99.90
25512;DHT22;13414;44.534;18.700;2022-10-16T05:47:33;7.60;99.90
25512;DHT22;13414;44.534;18.700;2022-10-16T05:50:01;7.70;99.90
25512;DHT22;13414;44.534;18.700;2022-10-16T05:52:31;7.70;99.90
25512;DHT22;13414;44.534;18.700;2022-10-16T05:54:58;7.80;99.90
25512;DHT22;13414;44.534;18.700;2022-10-16T05:57:25;7.90;99.90
25512;DHT22;13414;44.534;18.700;2022-10-16T05:59:53;8.00;99.90
25512;DHT22;13414;44.534;18.700;2022-10-16T06:02:20;8.10;99.90
25512;DHT22;13414;44.534;18.700;2022-10-16T06:04:47;8.20;99.90
25512;DHT22;13414;44.534;18.700;2022-10-16T06:07:14;8.40;99.90
25512;DHT22;13414;44.534;18.700;2022-10-16T06:09:43;8.40;99.90
25512;DHT22;13414;44.534;18.700;2022-10-16T06:12:11;8.50;99.90
25512;DHT22;13414;44.534;18.700;2022-10-16T06:14:38;8.50;99.90
25512;DHT22;13414;44.534;18.700;2022-10-16T06:17:05;8.70;99.90
25512;DHT22;13414;44.534;18.700;2022-10-16T06:19:32;8.90;99.90
25512;DHT22;13414;44.534;18.700;2022-10-16T06:22:00;9.00;99.90
25512;DHT22;13414;44.534;18.700;2022-10-16T06:24:28;9.30;99.90
25512;DHT22;13414;44.534;18.700;2022-10-16T06:26:57;9.50;99.90
25512;DHT22;13414;44.534;18.700;2022-10-16T06:29:24;9.70;99.90
25512;DHT22;13414;44.534;18.700;2022-10-16T06:31:51;10.00;99.90
25512;DHT22;13414;44.534;18.700;2022-10-16T06:34:18;10.20;99.90
25512;DHT22;13414;44.534;18.700;2022-10-16T06:36:46;10.50;99.90
25512;DHT22;13414;44.534;18.700;2022-10-16T06:39:13;10.60;99.90
25512;DHT22;13414;44.534;18.700;2022-10-16T06:41:40;10.90;99.90
25512;DHT22;13414;44.534;18.700;2022-10-16T06:44:16;11.10;99.90
25512;DHT22;13414;44.534;18.700;2022-10-16T06:46:43;11.20;99.90
25512;DHT22;13414;44.534;18.700;2022-10-16T06:49:10;11.30;99.90
25512;DHT22;13414;44.534;18.700;2022-10-16T06:51:38;11.50;99.90
25512;DHT22;13414;44.534;18.700;2022-10-16T06:54:06;11.70;99.90
25512;DHT22;13414;44.534;18.700;2022-10-16T06:56:34;11.90;99.90
25512;DHT22;13414;44.534;18.700;2022-10-16T06:59:02;12.00;99.90
25512;DHT22;13414;44.534;18.700;2022-10-16T07:01:31;12.00;99.90
25512;DHT22;13414;44.534;18.700;2022-10-16T07:04:00;12.20;99.90
25512;DHT22;13414;44.534;18.700;2022-10-16T07:06:31;12.30;99.90
25512;DHT22;13414;44.534;18.700;2022-10-16T07:09:02;12.50;99.90
25512;DHT22;13414;44.534;18.700;2022-10-16T07:11:29;12.60;99.90
25512;DHT22;13414;44.534;18.700;2022-10-16T07:13:57;12.70;99.90
25512;DHT22;13414;44.534;18.700;2022-10-16T07:16:27;12.90;99.90
25512;DHT22;13414;44.534;18.700;2022-10-16T07:18:56;13.20;99.90
25512;DHT22;13414;44.534;18.700;2022-10-16T07:21:26;13.40;99.90
25512;DHT22;13414;44.534;18.700;2022-10-16T07:23:55;13.70;99.90
25512;DHT22;13414;44.534;18.700;2022-10-16T07:26:24;13.80;99.90
25512;DHT22;13414;44.534;18.700;2022-10-16T07:28:51;14.10;99.90
25512;DHT22;13414;44.534;18.700;2022-10-16T07:31:19;14.20;99.90
25512;DHT22;13414;44.534;18.700;2022-10-16T07:33:47;14.30;99.90
25512;DHT22;13414;44.534;18.700;2022-10-16T07:36:17;14.30;99.90
25512;DHT22;13414;44.534;18.700;2022-10-16T07:38:46;14.40;99.90
25512;DHT22;13414;44.534;18.700;2022-10-16T07:41:15;14.50;99.90
25512;DHT22;13414;44.534;18.700;2022-10-16T07:43:45;14.60;99.90
25512;DHT22;13414;44.534;18.700;2022-10-16T07:46:12;14.70;99.90
25512;DHT22;13414;44.534;18.700;2022-10-16T07:48:49;14.90;99.90
25512;DHT22;13414;44.534;18.700;2022-10-16T07:51:18;15.00;99.90
25512;DHT22;13414;44.534;18.700;2022-10-16T07:53:47;15.20;99.90
25512;DHT22;13414;44.534;18.700;2022-10-16T07:56:15;15.40;99.90
25512;DHT22;13414;44.534;18.700;2022-10-16T07:58:43;15.70;99.90
25512;DHT22;13414;44.534;18.700;2022-10-16T08:01:11;15.90;99.90
25512;DHT22;13414;44.534;18.700;2022-10-16T08:03:42;16.10;99.90
25512;DHT22;13414;44.534;18.700;2022-10-16T08:06:09;16.20;99.90
25512;DHT22;13414;44.534;18.700;2022-10-16T08:08:38;16.40;99.90
25512;DHT22;13414;44.534;18.700;2022-10-16T08:11:05;16.60;99.90
25512;DHT22;13414;44.534;18.700;2022-10-16T08:13:33;16.80;99.90
25512;DHT22;13414;44.534;18.700;2022-10-16T08:16:00;16.70;99.90
25512;DHT22;13414;44.534;18.700;2022-10-16T08:18:29;16.80;99.90
25512;DHT22;13414;44.534;18.700;2022-10-16T08:20:57;16.90;99.90
25512;DHT22;13414;44.534;18.700;2022-10-16T08:23:26;16.90;99.90
25512;DHT22;13414;44.534;18.700;2022-10-16T08:25:55;16.80;99.90
25512;DHT22;13414;44.534;18.700;2022-10-16T08:28:23;16.90;99.90
25512;DHT22;13414;44.534;18.700;2022-10-16T08:30:50;16.90;99.90
25512;DHT22;13414;44.534;18.700;2022-10-16T08:33:18;16.90;99.90
25512;DHT22;13414;44.534;18.700;2022-10-16T08:35:51;16.90;99.90
25512;DHT22;13414;44.534;18.700;2022-10-16T08:38:20;16.90;99.90
25512;DHT22;13414;44.534;18.700;2022-10-16T08:40:47;17.00;99.90
25512;DHT22;13414;44.534;18.700;2022-10-16T08:43:31;17.10;99.90
25512;DHT22;13414;44.534;18.700;2022-10-16T08:46:14;17.20;99.90
25512;DHT22;13414;44.534;18.700;2022-10-16T08:48:46;17.30;99.90
25512;DHT22;13414;44.534;18.700;2022-10-16T08:51:19;17.30;99.90
25512;DHT22;13414;44.534;18.700;2022-10-16T08:53:51;17.40;99.90
25512;DHT22;13414;44.534;18.700;2022-10-16T08:56:20;17.50;99.90
25512;DHT22;13414;44.534;18.700;2022-10-16T08:58:49;17.50;99.90
25512;DHT22;13414;44.534;18.700;2022-10-16T09:01:20;17.60;99.90
25512;DHT22;13414;44.534;18.700;2022-10-16T09:04:17;17.80;99.90
25512;DHT22;13414;44.534;18.700;2022-10-16T09:06:53;17.90;99.90
25512;DHT22;13414;44.534;18.700;2022-10-16T09:12:31;18.00;99.90
25512;DHT22;13414;44.534;18.700;2022-10-16T09:15:13;18.00;99.90
25512;DHT22;13414;44.534;18.700;2022-10-16T09:17:49;18.10;99.90
25512;DHT22;13414;44.534;18.700;2022-10-16T09:20:28;18.20;99.90
25512;DHT22;13414;44.534;18.700;2022-10-16T09:23:16;18.30;99.90
25512;DHT22;13414;44.534;18.700;2022-10-16T09:25:46;18.40;99.90
25512;DHT22;13414;44.534;18.700;2022-10-16T09:28:15;18.50;99.90
25512;DHT22;13414;44.534;18.700;2022-10-16T09:30:44;18.50;99.90
25512;DHT22;13414;44.534;18.700;2022-10-16T09:33:15;18.50;99.90
25512;DHT22;13414;44.534;18.700;2022-10-16T09:35:44;18.60;99.90
25512;DHT22;13414;44.534;18.700;2022-10-16T09:38:22;18.70;99.90
25512;DHT22;13414;44.534;18.700;2022-10-16T09:40:50;18.80;99.90
25512;DHT22;13414;44.534;18.700;2022-10-16T09:43:23;18.80;99.90
25512;DHT22;13414;44.534;18.700;2022-10-16T09:46:05;18.90;99.90
25512;DHT22;13414;44.534;18.700;2022-10-16T09:48:36;19.00;99.90
25512;DHT22;13414;44.534;18.700;2022-10-16T09:51:06;19.10;99.90
25512;DHT22;13414;44.534;18.700;2022-10-16T09:53:46;19.20;99.90
25512;DHT22;13414;44.534;18.700;2022-10-16T09:56:22;19.30;99.90
25512;DHT22;13414;44.534;18.700;2022-10-16T09:58:50;19.40;99.90
25512;DHT22;13414;44.534;18.700;2022-10-16T10:01:21;19.50;99.90
25512;DHT22;13414;44.534;18.700;2022-10-16T10:03:50;19.60;99.90
25512;DHT22;13414;44.534;18.700;2022-10-16T10:06:24;19.70;99.90
25512;DHT22;13414;44.534;18.700;2022-10-16T10:08:54;19.70;99.90
25512;DHT22;13414;44.534;18.700;2022-10-16T10:11:42;19.70;99.90
25512;DHT22;13414;44.534;18.700;2022-10-16T10:14:25;19.80;99.90
25512;DHT22;13414;44.534;18.700;2022-10-16T10:17:10;19.90;99.90
25512;DHT22;13414;44.534;18.700;2022-10-16T10:19:39;20.00;99.90
25512;DHT22;13414;44.534;18.700;2022-10-16T10:22:17;20.10;99.90
25512;DHT22;13414;44.534;18.700;2022-10-16T10:24:45;20.10;99.90
25512;DHT22;13414;44.534;18.700;2022-10-16T10:27:24;20.10;99.90
25512;DHT22;13414;44.534;18.700;2022-10-16T10:30:02;20.10;99.90
25512;DHT22;13414;44.534;18.700;2022-10-16T10:32:38;20.20;99.90
25512;DHT22;13414;44.534;18.700;2022-10-16T10:35:15;20.30;99.90
25512;DHT22;13414;44.534;18.700;2022-10-16T10:37:59;20.30;99.90
25512;DHT22;13414;44.534;18.700;2022-10-16T10:40:39;20.40;99.50
25512;DHT22;13414;44.534;18.700;2022-10-16T10:43:15;20.60;99.90
25512;DHT22;13414;44.534;18.700;2022-10-16T10:45:47;20.80;99.30
25512;DHT22;13414;44.534;18.700;2022-10-16T10:48:27;20.80;97.90
25512;DHT22;13414;44.534;18.700;2022-10-16T10:50:59;20.80;97.40
25512;DHT22;13414;44.534;18.700;2022-10-16T10:53:38;20.80;97.50
25512;DHT22;13414;44.534;18.700;2022-10-16T10:56:16;20.80;97.80
25512;DHT22;13414;44.534;18.700;2022-10-16T10:59:07;20.70;99.10
25512;DHT22;13414;44.534;18.700;2022-10-16T11:01:44;20.70;99.40
25512;DHT22;13414;44.534;18.700;2022-10-16T11:07:15;20.90;98.70
25512;DHT22;13414;44.534;18.700;2022-10-16T11:09:47;21.00;97.20
25512;DHT22;13414;44.534;18.700;2022-10-16T11:12:17;21.00;96.30
25512;DHT22;13414;44.534;18.700;2022-10-16T11:14:49;21.10;94.50
25512;DHT22;13414;44.534;18.700;2022-10-16T11:17:25;21.10;92.30
25512;DHT22;13414;44.534;18.700;2022-10-16T11:19:58;21.20;91.30
25512;DHT22;13414;44.534;18.700;2022-10-16T11:22:33;21.20;91.50
25512;DHT22;13414;44.534;18.700;2022-10-16T11:25:06;21.20;91.10
25512;DHT22;13414;44.534;18.700;2022-10-16T11:27:43;21.40;90.60
25512;DHT22;13414;44.534;18.700;2022-10-16T11:30:16;21.40;90.60
25512;DHT22;13414;44.534;18.700;2022-10-16T11:32:54;21.50;90.80
25512;DHT22;13414;44.534;18.700;2022-10-16T11:35:32;21.50;91.30
25512;DHT22;13414;44.534;18.700;2022-10-16T11:38:03;21.50;91.90
25512;DHT22;13414;44.534;18.700;2022-10-16T11:40:32;21.50;91.80
25512;DHT22;13414;44.534;18.700;2022-10-16T11:43:12;21.60;91.80
25512;DHT22;13414;44.534;18.700;2022-10-16T11:45:43;21.60;91.30
25512;DHT22;13414;44.534;18.700;2022-10-16T11:48:18;21.70;90.80
25512;DHT22;13414;44.534;18.700;2022-10-16T11:50:53;21.70;90.60
25512;DHT22;13414;44.534;18.700;2022-10-16T11:53:27;21.60;90.20
25512;DHT22;13414;44.534;18.700;2022-10-16T11:55:58;21.50;89.50
25512;DHT22;13414;44.534;18.700;2022-10-16T11:58:30;21.50;90.10
25512;DHT22;13414;44.534;18.700;2022-10-16T12:01:05;21.50;90.30
25512;DHT22;13414;44.534;18.700;2022-10-16T12:03:42;21.60;90.50
25512;DHT22;13414;44.534;18.700;2022-10-16T12:06:25;21.70;90.40
25512;DHT22;13414;44.534;18.700;2022-10-16T12:08:54;21.70;90.10
25512;DHT22;13414;44.534;18.700;2022-10-16T12:11:33;21.70;90.30
25512;DHT22;13414;44.534;18.700;2022-10-16T12:14:07;21.80;88.70
25512;DHT22;13414;44.534;18.700;2022-10-16T12:16:37;21.80;89.00
25512;DHT22;13414;44.534;18.700;2022-10-16T12:19:13;21.80;89.20
25512;DHT22;13414;44.534;18.700;2022-10-16T12:21:42;21.90;89.00
25512;DHT22;13414;44.534;18.700;2022-10-16T12:24:21;21.90;88.50
25512;DHT22;13414;44.534;18.700;2022-10-16T12:26:52;21.90;88.20
25512;DHT22;13414;44.534;18.700;2022-10-16T12:29:28;22.00;88.50
25512;DHT22;13414;44.534;18.700;2022-10-16T12:31:57;22.00;89.30
25512;DHT22;13414;44.534;18.700;2022-10-16T12:34:28;22.00;88.90
25512;DHT22;13414;44.534;18.700;2022-10-16T12:37:12;22.00;86.70
25512;DHT22;13414;44.534;18.700;2022-10-16T12:39:40;22.00;86.60
25512;DHT22;13414;44.534;18.700;2022-10-16T12:42:22;22.00;86.00
25512;DHT22;13414;44.534;18.700;2022-10-16T12:44:50;22.00;85.80
25512;DHT22;13414;44.534;18.700;2022-10-16T12:47:22;22.00;86.00
25512;DHT22;13414;44.534;18.700;2022-10-16T12:49:51;22.10;86.30
25512;DHT22;13414;44.534;18.700;2022-10-16T12:52:37;22.00;85.80
25512;DHT22;13414;44.534;18.700;2022-10-16T12:55:11;22.00;85.80
25512;DHT22;13414;44.534;18.700;2022-10-16T12:57:49;22.00;86.10
25512;DHT22;13414;44.534;18.700;2022-10-16T13:00:26;22.00;86.80
25512;DHT22;13414;44.534;18.700;2022-10-16T13:06:02;22.00;87.50
25512;DHT22;13414;44.534;18.700;2022-10-16T13:11:46;22.20;87.20
25512;DHT22;13414;44.534;18.700;2022-10-16T13:14:41;22.10;86.20
25512;DHT22;13414;44.534;18.700;2022-10-16T13:17:19;22.10;86.80
25512;DHT22;13414;44.534;18.700;2022-10-16T13:19:57;22.10;86.10
25512;DHT22;13414;44.534;18.700;2022-10-16T13:22:32;22.10;87.60
25512;DHT22;13414;44.534;18.700;2022-10-16T13:25:08;22.10;87.30
25512;DHT22;13414;44.534;18.700;2022-10-16T13:27:44;22.10;87.10
25512;DHT22;13414;44.534;18.700;2022-10-16T13:30:16;22.10;86.60
25512;DHT22;13414;44.534;18.700;2022-10-16T13:32:46;22.20;87.00
25512;DHT22;13414;44.534;18.700;2022-10-16T13:35:23;22.20;86.70
25512;DHT22;13414;44.534;18.700;2022-10-16T13:37:50;22.20;86.90
25512;DHT22;13414;44.534;18.700;2022-10-16T13:40:21;22.20;87.50
25512;DHT22;13414;44.534;18.700;2022-10-16T13:42:49;22.30;88.10
25512;DHT22;13414;44.534;18.700;2022-10-16T13:45:18;22.20;87.50
25512;DHT22;13414;44.534;18.700;2022-10-16T13:47:46;22.20;88.20
25512;DHT22;13414;44.534;18.700;2022-10-16T13:50:15;22.20;88.50
25512;DHT22;13414;44.534;18.700;2022-10-16T13:52:43;22.30;88.60
25512;DHT22;13414;44.534;18.700;2022-10-16T13:55:11;22.30;88.90
25512;DHT22;13414;44.534;18.700;2022-10-16T13:57:40;22.20;89.60
25512;DHT22;13414;44.534;18.700;2022-10-16T14:00:22;22.20;89.30
25512;DHT22;13414;44.534;18.700;2022-10-16T14:02:53;22.20;89.20
25512;DHT22;13414;44.534;18.700;2022-10-16T14:05:23;22.30;89.60
25512;DHT22;13414;44.534;18.700;2022-10-16T14:07:52;22.30;89.70
25512;DHT22;13414;44.534;18.700;2022-10-16T14:10:23;22.20;89.70
25512;DHT22;13414;44.534;18.700;2022-10-16T14:12:58;22.20;90.30
25512;DHT22;13414;44.534;18.700;2022-10-16T14:15:26;22.20;90.50
25512;DHT22;13414;44.534;18.700;2022-10-16T14:17:55;22.20;90.90
25512;DHT22;13414;44.534;18.700;2022-10-16T14:20:26;22.20;92.20
25512;DHT22;13414;44.534;18.700;2022-10-16T14:23:02;22.20;93.70
25512;DHT22;13414;44.534;18.700;2022-10-16T14:25:31;22.20;94.00
25512;DHT22;13414;44.534;18.700;2022-10-16T14:28:02;22.10;94.30
25512;DHT22;13414;44.534;18.700;2022-10-16T14:30:31;22.00;94.80
25512;DHT22;13414;44.534;18.700;2022-10-16T14:33:00;22.00;95.50
25512;DHT22;13414;44.534;18.700;2022-10-16T14:35:30;21.90;96.00
25512;DHT22;13414;44.534;18.700;2022-10-16T14:37:59;21.90;96.50
25512;DHT22;13414;44.534;18.700;2022-10-16T14:40:28;21.90;96.60
25512;DHT22;13414;44.534;18.700;2022-10-16T14:42:56;21.70;96.70
25512;DHT22;13414;44.534;18.700;2022-10-16T14:45:27;21.60;97.00
25512;DHT22;13414;44.534;18.700;2022-10-16T14:47:57;21.50;97.40
25512;DHT22;13414;44.534;18.700;2022-10-16T14:50:25;21.50;97.90
25512;DHT22;13414;44.534;18.700;2022-10-16T14:52:52;21.50;98.30
25512;DHT22;13414;44.534;18.700;2022-10-16T14:55:19;21.40;98.80
25512;DHT22;13414;44.534;18.700;2022-10-16T14:57:47;21.40;99.90
25512;DHT22;13414;44.534;18.700;2022-10-16T15:00:17;21.30;99.90
25512;DHT22;13414;44.534;18.700;2022-10-16T15:02:47;21.20;99.90
25512;DHT22;13414;44.534;18.700;2022-10-16T15:05:17;21.20;99.90
25512;DHT22;13414;44.534;18.700;2022-10-16T15:07:46;21.10;99.90
25512;DHT22;13414;44.534;18.700;2022-10-16T15:10:14;21.10;99.90
25512;DHT22;13414;44.534;18.700;2022-10-16T15:12:42;21.00;99.90
25512;DHT22;13414;44.534;18.700;2022-10-16T15:15:32;20.90;99.90
25512;DHT22;13414;44.534;18.700;2022-10-16T15:18:02;20.90;99.90
25512;DHT22;13414;44.534;18.700;2022-10-16T15:20:31;20.90;99.90
25512;DHT22;13414;44.534;18.700;2022-10-16T15:23:00;20.70;99.90
25512;DHT22;13414;44.534;18.700;2022-10-16T15:25:32;20.60;99.90
25512;DHT22;13414;44.534;18.700;2022-10-16T15:28:00;20.50;99.90
25512;DHT22;13414;44.534;18.700;2022-10-16T15:30:28;20.50;99.90
25512;DHT22;13414;44.534;18.700;2022-10-16T15:32:55;20.40;99.90
25512;DHT22;13414;44.534;18.700;2022-10-16T15:35:24;20.30;99.90
25512;DHT22;13414;44.534;18.700;2022-10-16T15:37:51;20.20;99.90
25512;DHT22;13414;44.534;18.700;2022-10-16T15:40:20;20.10;99.90
25512;DHT22;13414;44.534;18.700;2022-10-16T15:42:48;20.00;99.90
25512;DHT22;13414;44.534;18.700;2022-10-16T15:45:16;19.90;99.90
25512;DHT22;13414;44.534;18.700;2022-10-16T15:47:44;19.90;99.90
25512;DHT22;13414;44.534;18.700;2022-10-16T15:50:13;19.70;99.90
25512;DHT22;13414;44.534;18.700;2022-10-16T15:52:42;19.60;99.90
25512;DHT22;13414;44.534;18.700;2022-10-16T15:55:12;19.50;99.90
25512;DHT22;13414;44.534;18.700;2022-10-16T15:57:40;19.40;99.90